Time;durP1;ratioP1;P1;durP2;ratioP2;P2;SDS_P1;SDS_P2;PMS_P1;PMS_P2;Temp;Humidity;BMP_temperature;BMP_pressure;BME280_temperature;BME280_humidity;BME280_pressure;Samples;Min_cycle;Max_cycle;Signal;HPM_P1;HPM_P2
2022/06/10 00:00:13;;;;;;;0.20;0.20;;;;;;;20.77;48.36;101359.31;696974;28;45271;-65
2022/06/10 00:00:37;;;;;;;0.20;0.20;;;;;;;20.77;48.25;101364.78;693309;28;113967;-66
2022/06/10 00:01:00;;;;;;;0.20;0.20;;;;;;;20.75;48.38;101359.53;695355;28;92364;-65
2022/06/10 00:01:21;;;;;;;0.20;0.20;;;;;;;20.74;48.31;101359.78;696256;28;44057;-65
2022/06/10 00:01:43;;;;;;;0.20;0.20;;;;;;;20.75;48.39;101366.94;696559;28;22357;-65
2022/06/10 00:02:05;;;;;;;0.20;0.20;;;;;;;20.68;48.48;101354.13;695823;28;68411;-65
2022/06/10 00:02:26;;;;;;;0.20;0.20;;;;;;;20.75;48.47;101361.47;696800;28;44993;-65
2022/06/10 00:02:47;;;;;;;0.20;0.20;;;;;;;20.75;48.37;101359.53;696967;28;23510;-63
2022/06/10 00:03:10;;;;;;;0.20;0.20;;;;;;;20.74;48.48;101370.78;696655;28;22401;-66
2022/06/10 00:03:31;;;;;;;0.20;0.20;;;;;;;20.74;48.48;101365.28;697582;28;2104;-63
2022/06/10 00:03:53;;;;;;;0.25;0.25;;;;;;;20.72;48.26;101368.25;695570;28;23449;-63
2022/06/10 00:04:14;;;;;;;0.20;0.20;;;;;;;20.72;48.49;101364.66;695560;28;21505;-63
2022/06/10 00:04:35;;;;;;;0.30;0.30;;;;;;;20.73;48.34;101369.91;692550;28;45068;-63
2022/06/10 00:04:57;;;;;;;0.20;0.20;;;;;;;20.71;48.54;101369.31;694169;28;22119;-63
2022/06/10 00:05:24;;;;;;;0.20;0.20;;;;;;;20.73;48.52;101374.56;693079;28;45036;-63
2022/06/10 00:05:49;;;;;;;0.20;0.20;;;;;;;20.74;48.41;101370.78;694096;28;60503;-64
2022/06/10 00:06:13;;;;;;;0.20;0.20;;;;;;;20.73;48.51;101369.91;694694;28;69504;-64
2022/06/10 00:06:34;;;;;;;0.20;0.20;;;;;;;20.72;48.42;101370.16;694479;28;55307;-63
2022/06/10 00:06:55;;;;;;;0.20;0.20;;;;;;;20.73;48.39;101366.34;695002;28;45215;-61
2022/06/10 00:07:16;;;;;;;0.30;0.30;;;;;;;20.72;48.40;101372.91;696449;28;22415;-64
2022/06/10 00:07:38;;;;;;;0.20;0.20;;;;;;;20.71;48.46;101366.56;697118;28;22763;-63
2022/06/10 00:08:00;;;;;;;0.20;0.20;;;;;;;20.71;48.56;101372.06;698381;28;1034;-63
2022/06/10 00:08:23;;;;;;;0.20;0.20;;;;;;;20.69;48.54;101365.97;696469;28;46391;-63
2022/06/10 00:08:49;;;;;;;0.20;0.20;;;;;;;20.71;48.47;101377.56;693395;28;90778;-64
2022/06/10 00:09:10;;;;;;;0.20;0.20;;;;;;;20.71;48.49;101372.06;692431;28;116271;-64
2022/06/10 00:09:32;;;;;;;0.20;0.20;;;;;;;20.69;48.45;101369.53;696227;28;22416;-63
2022/06/10 00:09:53;;;;;;;0.20;0.20;;;;;;;20.71;48.59;101377.56;694011;28;47477;-63
2022/06/10 00:10:16;;;;;;;0.20;0.20;;;;;;;20.69;48.46;101366.81;696796;28;45754;-64
2022/06/10 00:10:39;;;;;;;0.20;0.20;;;;;;;20.69;48.53;101375.03;693875;28;68348;-63
2022/06/10 00:11:02;;;;;;;0.20;0.20;;;;;;;20.67;48.61;101370.84;695997;28;45357;-64
2022/06/10 00:11:23;;;;;;;0.20;0.20;;;;;;;20.69;48.56;101374.22;693916;28;68356;-65
2022/06/10 00:11:45;;;;;;;0.20;0.20;;;;;;;20.67;48.66;101379.06;694393;28;46307;-64
2022/06/10 00:12:06;;;;;;;0.20;0.20;;;;;;;20.63;48.60;101367.69;695350;28;21549;-64
2022/06/10 00:12:28;;;;;;;0.20;0.20;;;;;;;20.67;48.70;101377.19;695257;28;22234;-64
2022/06/10 00:12:50;;;;;;;0.20;0.20;;;;;;;20.67;48.56;101377.19;694586;28;45370;-64
2022/06/10 00:13:12;;;;;;;0.20;0.20;;;;;;;20.66;48.37;101380.16;695067;28;45065;-64
2022/06/10 00:13:35;;;;;;;0.20;0.20;;;;;;;20.66;48.50;101382.91;695121;28;46279;-64
2022/06/10 00:13:57;;;;;;;0.20;0.20;;;;;;;20.66;48.74;101380.16;694832;28;68362;-64
2022/06/10 00:14:18;;;;;;;0.20;0.20;;;;;;;20.66;48.77;101374.66;696054;28;43723;-64
2022/06/10 00:14:40;;;;;;;0.20;0.20;;;;;;;20.65;48.58;101372.97;695537;28;22402;-64
2022/06/10 00:15:02;;;;;;;0.20;0.20;;;;;;;20.65;48.62;101381.22;696043;28;46410;-63
2022/06/10 00:15:23;;;;;;;0.20;0.20;;;;;;;20.64;48.69;101379.50;695893;28;45536;-64
2022/06/10 00:15:45;;;;;;;0.20;0.20;;;;;;;20.63;48.76;101380.59;695781;28;21566;-64
2022/06/10 00:16:09;;;;;;;0.20;0.20;;;;;;;20.64;48.77;101379.50;695982;28;22271;-64
2022/06/10 00:16:31;;;;;;;0.20;0.20;;;;;;;20.63;48.68;101380.59;693540;28;91035;-64
2022/06/10 00:16:52;;;;;;;0.20;0.20;;;;;;;20.62;48.76;101384.38;694975;28;44492;-65
2022/06/10 00:17:13;;;;;;;0.20;0.20;;;;;;;20.63;48.85;101386.06;695994;28;22483;-64
2022/06/10 00:17:35;;;;;;;0.20;0.20;;;;;;;20.62;48.55;101389.88;695029;28;23488;-64
2022/06/10 00:17:57;;;;;;;0.20;0.20;;;;;;;20.58;48.57;101381.25;693106;28;70848;-65
2022/06/10 00:18:18;;;;;;;0.20;0.20;;;;;;;20.61;48.52;101388.19;695216;28;22423;-64
2022/06/10 00:18:41;;;;;;;0.20;0.20;;;;;;;20.57;48.73;101384.22;695399;28;22424;-64
2022/06/10 00:19:02;;;;;;;0.20;0.20;;;;;;;20.59;48.74;101391.16;693855;28;69407;-64
2022/06/10 00:19:23;;;;;;;0.20;0.20;;;;;;;20.53;48.65;101381.94;694871;28;22466;-64
2022/06/10 00:19:45;;;;;;;0.20;0.20;;;;;;;20.58;48.57;101386.75;693644;28;46306;-65
2022/06/10 00:20:09;;;;;;;0.20;0.20;;;;;;;20.58;48.45;101391.38;695276;28;22408;-65
2022/06/10 00:20:32;;;;;;;0.20;0.20;;;;;;;20.56;48.71;101390.78;691889;28;92266;-65
2022/06/10 00:20:54;;;;;;;0.20;0.20;;;;;;;20.56;48.62;101391.59;692078;28;93228;-65
2022/06/10 00:21:21;;;;;;;0.20;0.20;;;;;;;20.55;48.66;101389.94;695287;28;22397;-65
2022/06/10 00:21:42;;;;;;;0.20;0.20;;;;;;;20.53;48.84;101400.28;690861;28;138180;-65
2022/06/10 00:22:05;;;;;;;0.20;0.20;;;;;;;20.54;48.80;101396.50;695111;28;22416;-65
2022/06/10 00:22:26;;;;;;;0.20;0.20;;;;;;;20.54;48.64;101388.25;693843;28;45058;-64
2022/06/10 00:22:47;;;;;;;0.20;0.20;;;;;;;20.50;48.55;101385.16;694038;28;46196;-64
2022/06/10 00:23:09;;;;;;;0.20;0.20;;;;;;;20.54;48.65;101396.50;695222;28;22417;-64
2022/06/10 00:23:32;;;;;;;0.20;0.20;;;;;;;20.52;48.68;101391.22;694581;28;14908;-64
2022/06/10 00:23:53;;;;;;;0.20;0.20;;;;;;;20.53;48.68;101392.91;693975;28;45319;-65
2022/06/10 00:24:14;;;;;;;0.20;0.20;;;;;;;20.52;48.67;101393.97;694101;28;46437;-64
2022/06/10 00:24:38;;;;;;;0.17;0.17;;;;;;;20.52;48.62;101396.72;694969;28;8541;-64
2022/06/10 00:25:00;;;;;;;0.20;0.20;;;;;;;20.53;48.55;101394.81;693654;28;69585;-64
2022/06/10 00:25:22;;;;;;;0.20;0.20;;;;;;;20.52;48.62;101385.75;693922;28;24256;-64
2022/06/10 00:25:45;;;;;;;0.20;0.20;;;;;;;20.51;48.52;101389.53;693315;28;45381;-64
2022/06/10 00:26:08;;;;;;;0.20;0.20;;;;;;;20.52;48.59;101390.41;694592;28;46578;-64
2022/06/10 00:26:31;;;;;;;0.20;0.20;;;;;;;20.52;48.61;101387.66;692100;28;93232;-64
2022/06/10 00:26:53;;;;;;;0.20;0.20;;;;;;;20.52;48.61;101388.50;695226;28;1582;-64
2022/06/10 00:27:14;;;;;;;0.20;0.20;;;;;;;20.50;48.64;101385.16;694862;28;22380;-64
2022/06/10 00:27:36;;;;;;;0.20;0.20;;;;;;;20.51;48.55;101395.03;693717;28;45256;-65
2022/06/10 00:27:59;;;;;;;0.20;0.20;;;;;;;20.51;48.60;101391.47;695012;28;22329;-64
2022/06/10 00:28:20;;;;;;;0.20;0.20;;;;;;;20.51;48.55;101391.47;692406;28;67526;-63
2022/06/10 00:28:43;;;;;;;0.20;0.20;;;;;;;20.50;48.66;101393.38;694424;28;23418;-64
2022/06/10 00:29:04;;;;;;;0.20;0.20;;;;;;;20.50;48.60;101392.50;692210;28;69448;-63
2022/06/10 00:29:26;;;;;;;0.20;0.20;;;;;;;20.49;48.71;101388.94;694086;28;23453;-63
2022/06/10 00:29:48;;;;;;;0.20;0.20;;;;;;;20.50;48.54;101393.38;692248;28;69732;-64
2022/06/10 00:30:11;;;;;;;0.20;0.20;;;;;;;20.49;48.44;101393.59;695172;28;21438;-64
2022/06/10 00:30:32;;;;;;;0.20;0.20;;;;;;;20.50;48.45;101393.38;693025;28;67411;-64
2022/06/10 00:30:54;;;;;;;0.20;0.20;;;;;;;20.49;48.52;101393.59;694629;28;21546;-64
2022/06/10 00:31:17;;;;;;;0.22;0.22;;;;;;;20.49;48.47;101390.84;694430;28;44634;-62
2022/06/10 00:31:38;;;;;;;0.20;0.20;;;;;;;20.48;48.61;101395.47;692932;28;69339;-64
2022/06/10 00:32:01;;;;;;;0.20;0.20;;;;;;;20.47;48.49;101391.09;695118;28;23477;-64
2022/06/10 00:32:22;;;;;;;0.20;0.20;;;;;;;20.47;48.54;101396.56;693862;28;45350;-64
2022/06/10 00:32:44;;;;;;;0.20;0.20;;;;;;;20.46;48.71;101392.13;693676;28;45315;-65
2022/06/10 00:33:05;;;;;;;0.28;0.28;;;;;;;20.47;48.61;101396.56;695164;28;23468;-65
2022/06/10 00:33:29;;;;;;;0.20;0.20;;;;;;;20.47;48.46;101396.56;693947;28;45236;-65
2022/06/10 00:33:51;;;;;;;0.20;0.20;;;;;;;20.44;48.84;101394.28;692171;28;90430;-65
2022/06/10 00:34:12;;;;;;;0.20;0.20;;;;;;;20.46;48.30;101396.81;694160;28;45291;-65
2022/06/10 00:34:35;;;;;;;0.20;0.20;;;;;;;20.43;48.61;101392.59;694237;28;21495;-66
2022/06/10 00:35:00;;;;;;;0.20;0.20;;;;;;;20.44;48.57;101399.78;694328;28;38103;-65
2022/06/10 00:35:21;;;;;;;0.20;0.20;;;;;;;20.42;48.52;101396.41;695677;28;885;-65
2022/06/10 00:35:43;;;;;;;0.20;0.20;;;;;;;20.41;48.53;101397.47;692027;28;20062;-63
2022/06/10 00:36:04;;;;;;;0.20;0.20;;;;;;;20.42;48.54;101399.13;692191;28;11305;-63
2022/06/10 00:36:26;;;;;;;0.20;0.20;;;;;;;20.43;48.48;101394.50;692760;28;22415;-64
2022/06/10 00:36:48;;;;;;;0.20;0.20;;;;;;;20.41;48.49;101394.72;692586;28;69446;-63
2022/06/10 00:37:09;;;;;;;0.20;0.20;;;;;;;20.42;48.41;101395.56;694571;28;22234;-65
2022/06/10 00:37:31;;;;;;;0.20;0.20;;;;;;;20.41;48.27;101392.00;694566;28;22413;-66
2022/06/10 00:37:53;;;;;;;0.20;0.20;;;;;;;20.41;48.17;101391.16;693586;28;46656;-65
2022/06/10 00:38:14;;;;;;;0.20;0.20;;;;;;;20.41;48.29;101400.22;694223;28;46260;-65
2022/06/10 00:38:36;;;;;;;0.20;0.20;;;;;;;20.41;48.52;101388.41;694045;28;46399;-65
2022/06/10 00:38:57;;;;;;;0.20;0.20;;;;;;;20.40;48.37;101397.69;694180;28;36447;-65
2022/06/10 00:39:18;;;;;;;0.25;0.25;;;;;;;20.39;48.36;101396.00;694957;28;16600;-65
2022/06/10 00:39:40;;;;;;;0.20;0.20;;;;;;;20.39;48.45;101396.00;694173;28;22558;-64
2022/06/10 00:40:02;;;;;;;0.20;0.20;;;;;;;20.38;48.50;101395.19;693984;28;44206;-65
2022/06/10 00:40:26;;;;;;;0.20;0.20;;;;;;;20.37;48.43;101393.50;695671;28;1627;-64
2022/06/10 00:40:50;;;;;;;0.20;0.20;;;;;;;20.38;48.29;101402.59;691827;28;90445;-64
2022/06/10 00:41:12;;;;;;;0.30;0.30;;;;;;;20.37;48.50;101396.25;691773;28;113614;-65
2022/06/10 00:41:33;;;;;;;0.20;0.20;;;;;;;20.36;48.36;101400.06;694629;28;23862;-65
2022/06/10 00:41:54;;;;;;;0.20;0.20;;;;;;;20.35;48.57;101410.19;694776;28;23752;-65
2022/06/10 00:42:16;;;;;;;0.20;0.20;;;;;;;20.34;48.20;101402.19;694222;28;44297;-65
2022/06/10 00:42:38;;;;;;;0.20;0.20;;;;;;;20.33;48.39;101406.00;694022;28;44171;-65
2022/06/10 00:42:59;;;;;;;0.20;0.20;;;;;;;20.32;48.44;101407.06;694253;28;44227;-65
2022/06/10 00:43:24;;;;;;;0.20;0.20;;;;;;;20.32;48.35;101412.56;694689;28;23455;-65
2022/06/10 00:43:47;;;;;;;0.20;0.20;;;;;;;20.31;48.39;101406.22;691561;28;115885;-64
2022/06/10 00:44:29;;;;;;;0.20;0.20;;;;;;;20.31;48.31;101403.50;693417;28;46322;-65
2022/06/10 00:44:52;;;;;;;0.20;0.20;;;;;;;20.30;48.10;101409.19;689091;28;160553;-63
2022/06/10 00:45:52;;;;;;;0.20;0.20;;;;;;;20.30;48.45;101407.28;692634;28;92150;-65
2022/06/10 00:46:21;;;;;;;0.20;0.20;;;;;;;20.27;48.28;101407.75;690737;28;137664;-64
2022/06/10 00:46:44;;;;;;;0.20;0.20;;;;;;;20.25;48.33;101407.13;690555;28;137745;-64
2022/06/10 00:47:15;;;;;;;0.20;0.20;;;;;;;20.26;48.20;101407.97;692782;28;69800;-64
2022/06/10 00:47:38;;;;;;;0.20;0.20;;;;;;;20.25;48.27;101407.13;691198;28;138354;-65
2022/06/10 00:48:00;;;;;;;0.20;0.20;;;;;;;20.22;48.30;101404.84;693348;28;70342;-65
2022/06/10 00:48:27;;;;;;;0.20;0.20;;;;;;;20.24;48.25;101404.63;695173;28;1560;-64
2022/06/10 00:48:53;;;;;;;0.20;0.20;;;;;;;20.24;48.47;101407.34;689791;28;161569;-64
2022/06/10 00:49:15;;;;;;;0.20;0.20;;;;;;;20.24;48.37;101410.09;693588;28;62012;-63
2022/06/10 00:49:36;;;;;;;0.20;0.20;;;;;;;20.22;48.34;101403.97;694775;28;7364;-64
2022/06/10 00:50:01;;;;;;;0.20;0.20;;;;;;;20.22;48.32;101412.22;693937;28;46335;-64
2022/06/10 00:50:26;;;;;;;0.20;0.20;;;;;;;20.22;48.21;101414.94;690890;28;116512;-64
2022/06/10 00:50:48;;;;;;;0.20;0.20;;;;;;;20.20;48.50;101409.69;692180;28;90768;-63
2022/06/10 00:51:15;;;;;;;0.20;0.20;;;;;;;20.20;48.14;101414.34;693476;28;67602;-64
2022/06/10 00:51:39;;;;;;;0.20;0.20;;;;;;;20.18;48.41;101409.09;691010;28;139093;-63
2022/06/10 00:52:01;;;;;;;0.20;0.20;;;;;;;20.17;48.48;101412.88;691711;28;115045;-65
2022/06/10 00:52:26;;;;;;;0.20;0.20;;;;;;;20.18;48.38;101417.31;692592;28;69554;-63
2022/06/10 00:52:50;;;;;;;0.30;0.30;;;;;;;20.18;48.53;101420.06;691961;28;92321;-62
2022/06/10 00:53:14;;;;;;;0.20;0.20;;;;;;;20.15;48.25;101413.09;691786;28;115366;-63
2022/06/10 00:53:39;;;;;;;0.30;0.30;;;;;;;20.18;48.47;101417.31;693487;28;70167;-63
2022/06/10 00:54:07;;;;;;;0.20;0.20;;;;;;;20.17;48.43;101421.09;691673;28;114433;-63
2022/06/10 00:54:30;;;;;;;0.30;0.30;;;;;;;20.14;48.44;101416.94;690622;28;137609;-63
2022/06/10 00:54:53;;;;;;;0.30;0.30;;;;;;;20.12;48.47;101419.03;691220;28;92030;-63
2022/06/10 00:55:15;;;;;;;0.30;0.30;;;;;;;20.14;48.31;101418.81;692471;28;90535;-64
2022/06/10 00:55:37;;;;;;;0.30;0.30;;;;;;;20.13;48.29;101415.25;694341;28;22418;-62
2022/06/10 00:55:59;;;;;;;0.20;0.20;;;;;;;20.13;48.38;101422.63;693727;28;44400;-64
2022/06/10 00:56:24;;;;;;;0.30;0.30;;;;;;;20.13;48.57;101426.22;693593;28;46364;-63
2022/06/10 00:56:48;;;;;;;0.20;0.20;;;;;;;20.12;48.42;101421.78;691084;28;115160;-64
2022/06/10 00:57:12;;;;;;;0.20;0.20;;;;;;;20.11;48.61;101425.59;691994;28;90633;-64
2022/06/10 00:57:38;;;;;;;0.20;0.20;;;;;;;20.12;48.53;101418.22;691860;28;92315;-63
2022/06/10 00:58:02;;;;;;;0.20;0.20;;;;;;;20.12;48.34;101426.44;691012;28;137971;-63
2022/06/10 00:58:27;;;;;;;0.20;0.20;;;;;;;20.10;48.42;101423.91;692935;28;63601;-63
2022/06/10 00:58:52;;;;;;;0.20;0.20;;;;;;;20.09;48.47;101416.75;691117;28;115164;-64
2022/06/10 00:59:22;;;;;;;0.30;0.30;;;;;;;20.07;48.25;101420.78;691460;28;115352;-63
2022/06/10 00:59:46;;;;;;;0.20;0.20;;;;;;;20.07;48.29;101424.38;689558;28;137983;-63
2022/06/10 01:00:10;;;;;;;0.30;0.30;;;;;;;20.07;48.74;101418.88;693300;28;70638;-63
2022/06/10 01:00:31;;;;;;;0.20;0.20;;;;;;;20.08;48.36;101419.75;690824;28;115148;-64
2022/06/10 01:00:53;;;;;;;0.20;0.20;;;;;;;20.07;48.47;101421.63;692802;28;45224;-64
2022/06/10 01:01:15;;;;;;;0.20;0.20;;;;;;;20.07;48.43;101415.31;695226;28;918;-63
2022/06/10 01:01:39;;;;;;;0.20;0.20;;;;;;;20.06;48.47;101422.72;691610;28;46680;-64
2022/06/10 01:02:03;;;;;;;0.30;0.30;;;;;;;20.07;48.51;101426.28;692864;28;67520;-64
2022/06/10 01:02:30;;;;;;;0.20;0.20;;;;;;;20.05;48.45;101426.50;691886;28;92250;-64
2022/06/10 01:02:52;;;;;;;0.20;0.20;;;;;;;20.05;48.52;101425.66;690147;28;138686;-64
2022/06/10 01:03:16;;;;;;;0.20;0.20;;;;;;;20.04;48.44;101422.06;694955;28;21545;-64
2022/06/10 01:03:37;;;;;;;0.25;0.25;;;;;;;20.04;48.44;101424.81;692289;28;93126;-63
2022/06/10 01:04:00;;;;;;;0.20;0.20;;;;;;;20.03;48.52;101425.03;693990;28;46130;-65
2022/06/10 01:04:21;;;;;;;0.20;0.20;;;;;;;19.99;48.43;101428.22;692705;28;48099;-64
2022/06/10 01:04:43;;;;;;;0.28;0.28;;;;;;;20.01;48.65;101424.44;693980;28;22212;-64
2022/06/10 01:05:09;;;;;;;0.20;0.20;;;;;;;20.01;48.49;101427.16;694031;28;46293;-63
2022/06/10 01:05:35;;;;;;;0.20;0.20;;;;;;;20.02;48.55;101431.59;690509;28;138166;-65
2022/06/10 01:05:56;;;;;;;0.20;0.20;;;;;;;20.01;48.50;101429.91;691578;28;112376;-64
2022/06/10 01:06:17;;;;;;;0.20;0.20;;;;;;;20.01;48.60;101432.66;694863;28;22543;-64
2022/06/10 01:06:39;;;;;;;0.30;0.30;;;;;;;20.01;48.69;101438.97;694714;28;23481;-62
2022/06/10 01:07:01;;;;;;;0.20;0.20;;;;;;;20.01;48.70;101438.13;693563;28;44382;-63
2022/06/10 01:07:26;;;;;;;0.20;0.20;;;;;;;20.01;48.62;101433.47;693093;28;47441;-63
2022/06/10 01:07:51;;;;;;;0.20;0.20;;;;;;;20.01;48.44;101429.91;691353;28;115031;-62
2022/06/10 01:08:14;;;;;;;0.20;0.20;;;;;;;20.00;48.49;101445.53;692060;28;115910;-62
2022/06/10 01:08:37;;;;;;;0.25;0.25;;;;;;;19.98;48.61;101443.00;687871;28;69462;-63
2022/06/10 01:09:00;;;;;;;0.20;0.20;;;;;;;19.97;48.54;101438.56;687244;28;69454;-63
2022/06/10 01:09:22;;;;;;;0.20;0.20;;;;;;;19.99;48.58;101441.09;686237;28;68279;-63
2022/06/10 01:09:44;;;;;;;0.20;0.20;;;;;;;19.98;48.58;101436.66;688522;28;21538;-64
2022/06/10 01:10:09;;;;;;;0.20;0.20;;;;;;;19.93;48.71;101439.25;688588;28;46422;-64
2022/06/10 01:10:34;;;;;;;0.20;0.20;;;;;;;19.95;48.74;101443.47;685801;28;113432;-63
2022/06/10 01:11:06;;;;;;;0.20;0.20;;;;;;;19.94;48.68;101435.44;685958;28;115279;-64
2022/06/10 01:11:47;;;;;;;0.20;0.20;;;;;;;19.95;48.69;101440.72;684602;28;136651;-64
2022/06/10 01:12:48;;;;;;;0.20;0.20;;;;;;;19.95;48.62;101439.84;685354;28;137424;-64
2022/06/10 01:13:19;;;;;;;0.28;0.28;;;;;;;19.93;48.69;101442.81;678943;28;137824;-63
2022/06/10 01:13:48;;;;;;;0.20;0.20;;;;;;;19.91;48.74;101436.72;679577;28;138945;-64
2022/06/10 01:14:19;;;;;;;0.28;0.28;;;;;;;19.92;48.86;101437.56;685571;28;136310;-63
2022/06/10 01:14:47;;;;;;;0.20;0.20;;;;;;;19.91;48.76;101444.13;684790;28;137895;-64
2022/06/10 01:15:23;;;;;;;0.22;0.22;;;;;;;19.90;48.65;101446.00;684820;28;159209;-65
2022/06/10 01:15:53;;;;;;;0.28;0.28;;;;;;;19.90;48.87;101445.16;684939;28;137524;-64
2022/06/10 01:16:23;;;;;;;0.20;0.20;;;;;;;19.89;48.92;101440.75;685403;28;137962;-64
2022/06/10 01:16:51;;;;;;;0.25;0.25;;;;;;;19.83;49.06;101437.00;684863;28;137838;-63
2022/06/10 01:17:21;;;;;;;0.20;0.20;;;;;;;19.89;48.85;101447.09;685014;28;136424;-64
2022/06/10 01:17:52;;;;;;;0.28;0.28;;;;;;;19.89;48.92;101441.59;685039;28;135933;-64
2022/06/10 01:18:24;;;;;;;0.20;0.20;;;;;;;19.89;49.06;101444.34;684915;28;137904;-64
2022/06/10 01:18:53;;;;;;;0.20;0.20;;;;;;;19.87;49.03;101449.19;684326;28;160524;-64
2022/06/10 01:19:32;;;;;;;0.20;0.20;;;;;;;19.88;48.92;101444.56;685536;28;137808;-65
2022/06/10 01:20:07;;;;;;;0.20;0.20;;;;;;;19.84;48.82;101440.56;684169;28;138083;-63
2022/06/10 01:20:34;;;;;;;0.30;0.30;;;;;;;19.87;48.83;101448.34;685359;28;135998;-64
2022/06/10 01:21:05;;;;;;;0.20;0.20;;;;;;;19.87;49.05;101448.34;684531;28;161093;-63
2022/06/10 01:22:06;;;;;;;0.30;0.30;;;;;;;19.85;49.10;101451.31;684923;28;136778;-64
2022/06/10 01:23:12;;;;;;;0.22;0.22;;;;;;;19.86;48.94;101453.00;684430;28;160781;-63
2022/06/10 01:24:18;;;;;;;0.20;0.20;;;;;;;19.85;49.10;101448.56;680111;28;137670;-64
2022/06/10 01:25:31;;;;;;;0.20;0.20;;;;;;;19.86;49.10;101452.16;685377;28;137548;-63
2022/06/10 01:26:32;;;;;;;0.20;0.20;;;;;;;19.85;49.11;101455.97;664045;29;136210;-63
2022/06/10 01:28:06;;;;;;;0.28;0.28;;;;;;;19.84;49.06;101457.03;673945;29;159026;-64
2022/06/10 01:28:42;;;;;;;0.20;0.20;;;;;;;19.84;49.24;101452.38;673887;29;137529;-65
2022/06/10 01:29:33;;;;;;;0.20;0.20;;;;;;;19.80;49.01;101454.72;685394;28;138568;-64
2022/06/10 01:30:15;;;;;;;0.20;0.20;;;;;;;19.83;49.25;101455.31;683868;28;157147;-65
2022/06/10 01:30:46;;;;;;;0.30;0.30;;;;;;;19.83;49.46;101458.94;685645;28;135943;-65
2022/06/10 01:31:16;;;;;;;0.20;0.20;;;;;;;19.84;49.28;101457.03;684966;28;159085;-64
2022/06/10 01:31:40;;;;;;;0.30;0.30;;;;;;;19.83;49.20;101456.19;685206;28;136334;-65
2022/06/10 01:32:03;;;;;;;0.20;0.20;;;;;;;19.83;49.51;101458.94;686195;28;90434;-64
2022/06/10 01:32:31;;;;;;;0.30;0.30;;;;;;;19.82;49.39;101459.97;688080;28;37968;-64
2022/06/10 01:33:16;;;;;;;0.20;0.20;;;;;;;19.83;49.32;101460.81;685180;28;137722;-65
2022/06/10 01:33:50;;;;;;;0.20;0.20;;;;;;;19.83;49.26;101464.41;684744;28;161978;-65
2022/06/10 01:34:24;;;;;;;0.22;0.22;;;;;;;19.80;49.29;101454.72;684622;28;158907;-64
2022/06/10 01:34:49;;;;;;;0.20;0.20;;;;;;;19.80;49.43;101454.72;658799;28;160607;-65
2022/06/10 01:35:17;;;;;;;0.30;0.30;;;;;;;19.82;49.27;101456.41;686634;28;138726;-64
2022/06/10 01:35:43;;;;;;;0.20;0.20;;;;;;;19.80;49.48;101453.91;681864;28;136279;-64
2022/06/10 01:36:09;;;;;;;0.30;0.30;;;;;;;19.80;49.43;101454.72;681725;28;137812;-65
2022/06/10 01:36:36;;;;;;;0.25;0.25;;;;;;;19.80;49.55;101456.63;680695;28;114569;-64
2022/06/10 01:37:04;;;;;;;0.20;0.20;;;;;;;19.79;49.40;101452.19;682122;28;138081;-64
2022/06/10 01:37:30;;;;;;;0.28;0.28;;;;;;;19.76;49.48;101456.22;682551;28;137698;-65
2022/06/10 01:37:58;;;;;;;0.20;0.20;;;;;;;19.77;49.26;101448.84;684777;28;138053;-64
2022/06/10 01:38:24;;;;;;;0.30;0.30;;;;;;;19.76;49.51;101455.34;684760;28;139146;-65
2022/06/10 01:38:49;;;;;;;0.20;0.20;;;;;;;19.77;49.55;101459.81;684992;28;138192;-64
2022/06/10 01:39:19;;;;;;;0.30;0.30;;;;;;;19.74;49.75;101455.56;685598;28;138253;-65
2022/06/10 01:39:45;;;;;;;0.20;0.20;;;;;;;19.73;49.60;101456.66;683908;28;160414;-65
2022/06/10 01:40:19;;;;;;;0.30;0.30;;;;;;;19.69;49.53;101458.16;685363;28;138145;-65
2022/06/10 01:40:49;;;;;;;0.20;0.20;;;;;;;19.73;49.65;101453.91;684720;28;137737;-63
2022/06/10 01:41:15;;;;;;;0.22;0.22;;;;;;;19.72;49.81;101460.44;686041;28;137931;-64
2022/06/10 01:41:43;;;;;;;0.20;0.20;;;;;;;19.73;49.58;101470.34;685924;28;137311;-65
2022/06/10 01:42:10;;;;;;;0.25;0.25;;;;;;;19.71;49.87;101464.22;685926;28;137301;-64
2022/06/10 01:42:34;;;;;;;0.20;0.20;;;;;;;19.73;49.77;101466.75;685426;28;137683;-64
2022/06/10 01:43:01;;;;;;;0.28;0.28;;;;;;;19.69;49.58;101462.78;687235;28;92332;-64
2022/06/10 01:43:32;;;;;;;0.22;0.22;;;;;;;19.70;49.62;101458.97;685495;28;138226;-64
2022/06/10 01:43:57;;;;;;;0.20;0.20;;;;;;;19.73;49.69;101464.88;684315;28;137829;-64
2022/06/10 01:44:27;;;;;;;0.30;0.30;;;;;;;19.73;49.68;101466.75;686306;28;115204;-64
2022/06/10 01:44:54;;;;;;;0.30;0.30;;;;;;;19.71;49.66;101461.50;684791;28;136337;-65
2022/06/10 01:45:20;;;;;;;0.30;0.30;;;;;;;19.70;49.88;101462.56;685925;28;138888;-65
2022/06/10 01:45:48;;;;;;;0.22;0.22;;;;;;;19.70;49.85;101465.31;685101;28;159320;-64
2022/06/10 01:46:13;;;;;;;0.25;0.25;;;;;;;19.71;49.83;101469.72;685941;28;136389;-65
2022/06/10 01:46:37;;;;;;;0.30;0.30;;;;;;;19.70;49.87;101470.78;686176;28;113650;-64
2022/06/10 01:47:06;;;;;;;0.20;0.20;;;;;;;19.70;49.84;101464.44;686141;28;113382;-64
2022/06/10 01:47:31;;;;;;;0.30;0.30;;;;;;;19.69;49.83;101463.63;685243;28;136715;-64
2022/06/10 01:47:56;;;;;;;0.20;0.20;;;;;;;19.69;50.00;101462.78;686416;28;113731;-65
2022/06/10 01:48:20;;;;;;;0.30;0.30;;;;;;;19.69;49.88;101462.78;686461;28;116575;-65
2022/06/10 01:48:49;;;;;;;0.20;0.20;;;;;;;19.69;49.92;101460.88;687394;28;93297;-65
2022/06/10 01:49:17;;;;;;;0.30;0.30;;;;;;;19.68;49.90;101461.09;686070;28;137865;-65
2022/06/10 01:49:43;;;;;;;0.20;0.20;;;;;;;19.70;49.79;101462.56;685375;28;136330;-64
2022/06/10 01:50:11;;;;;;;0.20;0.20;;;;;;;19.70;49.88;101457.09;685961;28;136608;-65
2022/06/10 01:50:39;;;;;;;0.20;0.20;;;;;;;19.70;49.91;101462.56;684972;28;137733;-65
2022/06/10 01:51:06;;;;;;;0.25;0.25;;;;;;;19.71;50.01;101461.50;685473;28;137941;-65
2022/06/10 01:51:35;;;;;;;0.20;0.20;;;;;;;19.69;49.93;101460.88;684511;28;160945;-64
2022/06/10 01:51:59;;;;;;;0.20;0.20;;;;;;;19.70;49.82;101465.31;685748;28;136856;-63
2022/06/10 01:52:32;;;;;;;0.20;0.20;;;;;;;19.65;49.97;101462.38;686746;28;92221;-64
2022/06/10 01:52:58;;;;;;;0.30;0.30;;;;;;;19.65;50.22;101464.28;685832;28;137627;-64
2022/06/10 01:53:25;;;;;;;0.20;0.20;;;;;;;19.65;50.23;101467.03;686103;28;114976;-64
2022/06/10 01:53:50;;;;;;;0.28;0.28;;;;;;;19.64;50.16;101457.97;685627;28;138071;-63
2022/06/10 01:54:16;;;;;;;0.20;0.20;;;;;;;19.64;50.07;101471.66;686769;28;113644;-65
2022/06/10 01:54:40;;;;;;;0.20;0.20;;;;;;;19.61;50.09;101461.16;685274;28;138077;-65
2022/06/10 01:55:10;;;;;;;0.20;0.20;;;;;;;19.59;50.19;101461.38;687516;28;93238;-64
2022/06/10 01:55:36;;;;;;;0.20;0.20;;;;;;;19.59;50.21;101464.09;685596;28;136149;-64
2022/06/10 01:56:03;;;;;;;0.30;0.30;;;;;;;19.56;50.15;101458.22;684902;28;136545;-64
2022/06/10 01:56:30;;;;;;;0.20;0.20;;;;;;;19.59;50.26;101466.00;684706;28;137600;-64
2022/06/10 01:56:54;;;;;;;0.22;0.22;;;;;;;19.58;50.34;101472.53;684889;28;137992;-64
2022/06/10 01:57:21;;;;;;;0.20;0.20;;;;;;;19.57;50.38;101468.13;685480;28;92324;-63
2022/06/10 01:57:57;;;;;;;0.30;0.30;;;;;;;19.56;50.36;101470.03;684460;28;136437;-63
2022/06/10 01:58:23;;;;;;;0.22;0.22;;;;;;;19.56;50.18;101464.53;685245;28;135990;-63
2022/06/10 01:58:48;;;;;;;0.30;0.30;;;;;;;19.56;50.37;101471.91;685670;28;138279;-64
2022/06/10 01:59:15;;;;;;;0.20;0.20;;;;;;;19.57;50.45;101476.34;685665;28;115165;-64
2022/06/10 01:59:40;;;;;;;0.30;0.30;;;;;;;19.55;50.55;101468.34;685120;28;138076;-63
2022/06/10 02:00:06;;;;;;;0.20;0.20;;;;;;;19.55;50.27;101473.81;686688;28;115213;-63
2022/06/10 02:00:31;;;;;;;0.30;0.30;;;;;;;19.57;50.45;101476.34;685747;28;138173;-63
2022/06/10 02:01:05;;;;;;;0.20;0.20;;;;;;;19.56;50.36;101472.75;687095;28;90749;-64
2022/06/10 02:01:30;;;;;;;0.30;0.30;;;;;;;19.53;50.44;101478.69;685425;28;138416;-63
2022/06/10 02:01:55;;;;;;;0.20;0.20;;;;;;;19.56;50.47;101471.91;686346;28;115211;-64